Create Tblcommutelog Verified Points Advance Search
| # | Trip ID | Id Commuter | Trip Date | Trip Num | Current Lat | Current Lng | Delta Distance | Current Time | Activity | Activity Confidence | Current Speed | |
|---|---|---|---|---|---|---|---|---|---|---|---|---|
| 71941 | 250501_753800_6439769_0845 | 753800 | (not set) | (not set) | 38.892940709976 | -76.997786898264 | 5.7294 | 2025-05-01 13:01:11.301 | on_foot | 100 | -0.44703925898772 | |
| 71942 | 250501_686385_16484655_0843 | 686385 | (not set) | (not set) | 38.886834487595 | -77.065561279859 | 2.154 | 2025-05-01 13:01:12.312 | in_vehicle | 100 | 10.022620186505 | |
| 71943 | 250501_784217_16652331_0824 | 784217 | (not set) | (not set) | 38.984523442612 | -77.023095836373 | 19.4588 | 2025-05-01 13:01:14.258 | in_vehicle | 100 | 7.8142462471054 | |
| 71944 | 250501_770680_16457490_0821 | 770680 | (not set) | (not set) | 38.878728927419 | -77.134487534361 | 7.5386 | 2025-05-01 13:01:15.055 | still | 33 | -0.44703925898772 | |
| 71945 | 250501_779784_16456978_0734 | 779784 | (not set) | (not set) | 39.038819569375 | -76.98263539743 | 37.5801 | 2025-05-01 13:01:15.296 | on_foot | 100 | 1.1801836437276 | |
| 71946 | 250501_783145_6419315_0830 | 783145 | (not set) | (not set) | 39.11450195 | -77.062469483333 | 17.6272 | 2025-05-01 13:01:16.056 | in_vehicle | 100 | 11.891244289073 | |
| 71947 | 250501_781006_16465159_0857 | 781006 | (not set) | (not set) | 38.8828309 | -76.9813671 | 0.0321 | 2025-05-01 13:01:16.697 | on_bicycle | 100 | 1.5512262286874 | |
| 71948 | 250501_770680_16457490_0821 | 770680 | (not set) | (not set) | 38.877717601714 | -77.13132292466 | 7.5386 | 2025-05-01 13:01:16.807 | still | 33 | -0.44703925898772 | |
| 71949 | 250501_782405_16511739_0726 | 782405 | (not set) | (not set) | 39.237286283796 | -76.670658071998 | 35.8632 | 2025-05-01 13:01:17.197 | in_vehicle | 100 | 9.8125117347805 | |
| 71950 | 250501_781766_16459526_0758 | 781766 | (not set) | (not set) | 38.934585629055 | -77.133317364343 | 23.549 | 2025-05-01 13:01:17.387 | in_vehicle | 100 | 3.2633865906104 | |
| 71951 | 250501_780825_6461772_0846 | 780825 | (not set) | (not set) | 38.836623781927 | -77.091483728237 | 8.5967 | 2025-05-01 13:01:20.182 | in_vehicle | 100 | 12.830026732948 | |
| 71952 | 250501_753800_6439769_0845 | 753800 | (not set) | (not set) | 38.893145368615 | -76.998302444175 | 5.7605 | 2025-05-01 13:01:21.305 | on_foot | 100 | 2.3827192504046 | |
| 71953 | 250501_700992_16414139_0816 | 700992 | (not set) | (not set) | 39.052010756596 | -77.152748109536 | 15.9382 | 2025-05-01 13:01:22.263 | in_vehicle | 100 | 11.149159119154 | |
| 71954 | 250501_766077_16507807_0822 | 766077 | (not set) | (not set) | 38.877538230358 | -77.057019406655 | 13.3922 | 2025-05-01 13:01:22.36 | in_vehicle | 100 | 2.2977817911969 | |
| 71955 | 250501_770680_16457490_0821 | 770680 | (not set) | (not set) | 38.879644824381 | -77.130258580928 | 7.5386 | 2025-05-01 13:01:22.485 | in_vehicle | 100 | -0.44703925898772 | |
| 71956 | 250501_781975_16497756_0753 | 781975 | (not set) | (not set) | 38.898210688863 | -77.012374831907 | 28.1841 | 2025-05-01 13:01:22.74 | in_vehicle | 100 | -0.44703925898772 | |
| 71957 | 250501_686385_16484655_0843 | 686385 | (not set) | (not set) | 38.884797375015 | -77.064279789826 | 2.3106 | 2025-05-01 13:01:23.52 | in_vehicle | 100 | 10.514363371391 | |
| 71958 | 250501_784617_16489083_0849 | 784617 | (not set) | (not set) | 38.893044399847 | -77.028505727616 | 0.5278 | 2025-05-01 13:01:25.468 | in_vehicle | 100 | -0.44703925898772 | |
| 71959 | 250501_784217_16652331_0824 | 784217 | (not set) | (not set) | 38.982837888707 | -77.022071655841 | 19.5875 | 2025-05-01 13:01:26.238 | in_vehicle | 100 | 8.0020027358803 | |
| 71960 | 250501_700992_16414139_0816 | 700992 | (not set) | (not set) | 39.073187036983 | -77.163752658802 | 14.3326 | 2025-05-01 12:59:57.266 | in_vehicle | 100 | 12.602036710864 |